Melrose, Ohio
Current Conditions -  °F | °C
As of 6:53 PM on Thursday 18 Dec 2014 (Local Time) from KAOH Reporting Station
Overcast Overcast  
Wind Chill: 25°   Ceiling: 1300
Heat Index: 31°   Visibility: 7mi
Dew Point: 23°   Wind: 6mph
Humidity: 72%   Direction: 280°W
Pressure: 30.2"   Gusts: NA
Location:  41.09°N, 84.42°W
Report Text: KAOH 182353Z AUTO 28005KT 7SM OVC013 M01/M05 A3020 RMK AO2 SLP237 T10061050 10000 21006 53002
Loading
Personal Weather Stations






























Interactive Weather Map New forecast layout! Learn more

10-Day Weather Forecast

Advertisements
Track Severe Weather on mobile